sensor_id;sensor_type;location;lat;lon;timestamp;temperature;humidity
49821;DHT22;36893;52.520;13.450;2023-09-18T00:03:06;28.10;61.20
49821;DHT22;36893;52.520;13.450;2023-09-18T00:13:07;28.10;61.30
49821;DHT22;36893;52.520;13.450;2023-09-18T00:23:09;28.00;61.40
49821;DHT22;36893;52.520;13.450;2023-09-18T00:33:10;28.00;61.50
49821;DHT22;36893;52.520;13.450;2023-09-18T00:43:10;28.00;61.70
49821;DHT22;36893;52.520;13.450;2023-09-18T00:53:16;27.90;61.70
49821;DHT22;36893;52.520;13.450;2023-09-18T01:03:21;27.80;61.90
49821;DHT22;36893;52.520;13.450;2023-09-18T01:13:28;27.80;62.00
49821;DHT22;36893;52.520;13.450;2023-09-18T01:23:30;27.70;62.20
49821;DHT22;36893;52.520;13.450;2023-09-18T01:33:32;27.70;62.20
49821;DHT22;36893;52.520;13.450;2023-09-18T01:43:34;27.60;62.30
49821;DHT22;36893;52.520;13.450;2023-09-18T01:53:35;27.60;62.40
49821;DHT22;36893;52.520;13.450;2023-09-18T02:03:36;27.50;62.40
49821;DHT22;36893;52.520;13.450;2023-09-18T02:13:36;27.40;62.50
49821;DHT22;36893;52.520;13.450;2023-09-18T02:23:37;27.40;62.60
49821;DHT22;36893;52.520;13.450;2023-09-18T02:33:38;27.40;62.70
49821;DHT22;36893;52.520;13.450;2023-09-18T02:43:39;27.30;62.80
49821;DHT22;36893;52.520;13.450;2023-09-18T02:53:40;27.30;62.80
49821;DHT22;36893;52.520;13.450;2023-09-18T03:03:41;27.20;63.80
49821;DHT22;36893;52.520;13.450;2023-09-18T03:13:46;27.10;63.10
49821;DHT22;36893;52.520;13.450;2023-09-18T03:23:47;27.10;63.30
49821;DHT22;36893;52.520;13.450;2023-09-18T03:33:47;27.10;63.30
49821;DHT22;36893;52.520;13.450;2023-09-18T03:43:48;27.00;63.40
49821;DHT22;36893;52.520;13.450;2023-09-18T03:53:49;26.90;63.60
49821;DHT22;36893;52.520;13.450;2023-09-18T04:03:51;26.90;63.70
49821;DHT22;36893;52.520;13.450;2023-09-18T04:13:53;26.90;63.90
49821;DHT22;36893;52.520;13.450;2023-09-18T04:23:53;26.80;63.90
49821;DHT22;36893;52.520;13.450;2023-09-18T04:33:57;26.80;64.10
49821;DHT22;36893;52.520;13.450;2023-09-18T04:43:58;26.70;64.10
49821;DHT22;36893;52.520;13.450;2023-09-18T04:53:59;26.70;64.20
49821;DHT22;36893;52.520;13.450;2023-09-18T05:04:00;26.70;64.40
49821;DHT22;36893;52.520;13.450;2023-09-18T05:14:00;26.60;64.50
49821;DHT22;36893;52.520;13.450;2023-09-18T05:24:01;26.60;64.60
49821;DHT22;36893;52.520;13.450;2023-09-18T05:34:02;26.60;64.70
49821;DHT22;36893;52.520;13.450;2023-09-18T05:44:03;26.50;64.70
49821;DHT22;36893;52.520;13.450;2023-09-18T05:54:05;26.50;64.90
49821;DHT22;36893;52.520;13.450;2023-09-18T06:04:06;26.50;65.00
49821;DHT22;36893;52.520;13.450;2023-09-18T06:14:06;26.50;65.20
49821;DHT22;36893;52.520;13.450;2023-09-18T06:24:07;26.50;65.40
49821;DHT22;36893;52.520;13.450;2023-09-18T06:34:08;26.50;65.60
49821;DHT22;36893;52.520;13.450;2023-09-18T06:44:09;26.50;65.80
49821;DHT22;36893;52.520;13.450;2023-09-18T06:54:10;26.40;65.90
49821;DHT22;36893;52.520;13.450;2023-09-18T07:04:10;26.30;66.30
49821;DHT22;36893;52.520;13.450;2023-09-18T07:14:11;26.20;66.70
49821;DHT22;36893;52.520;13.450;2023-09-18T07:24:12;26.20;66.90
49821;DHT22;36893;52.520;13.450;2023-09-18T07:34:16;26.30;67.20
49821;DHT22;36893;52.520;13.450;2023-09-18T07:44:21;26.40;67.30
49821;DHT22;36893;52.520;13.450;2023-09-18T07:54:21;26.40;67.30
49821;DHT22;36893;52.520;13.450;2023-09-18T08:04:22;26.50;67.30
49821;DHT22;36893;52.520;13.450;2023-09-18T08:14:23;26.60;67.30
49821;DHT22;36893;52.520;13.450;2023-09-18T08:24:23;26.80;67.20
49821;DHT22;36893;52.520;13.450;2023-09-18T08:34:24;26.90;67.00
49821;DHT22;36893;52.520;13.450;2023-09-18T08:44:26;27.00;66.70
49821;DHT22;36893;52.520;13.450;2023-09-18T08:54:28;27.20;66.40
49821;DHT22;36893;52.520;13.450;2023-09-18T09:04:29;27.30;66.10
49821;DHT22;36893;52.520;13.450;2023-09-18T09:14:30;27.40;66.20
49821;DHT22;36893;52.520;13.450;2023-09-18T09:24:42;27.50;66.10
49821;DHT22;36893;52.520;13.450;2023-09-18T09:34:43;27.60;66.20
49821;DHT22;36893;52.520;13.450;2023-09-18T09:44:45;27.60;65.90
49821;DHT22;36893;52.520;13.450;2023-09-18T09:54:45;27.70;65.90
49821;DHT22;36893;52.520;13.450;2023-09-18T10:04:49;27.70;65.90
49821;DHT22;36893;52.520;13.450;2023-09-18T10:14:52;27.70;65.80
49821;DHT22;36893;52.520;13.450;2023-09-18T10:25:01;27.80;65.80
49821;DHT22;36893;52.520;13.450;2023-09-18T10:35:10;27.80;65.60
49821;DHT22;36893;52.520;13.450;2023-09-18T10:45:12;27.90;65.60
49821;DHT22;36893;52.520;13.450;2023-09-18T10:55:15;27.90;65.70
49821;DHT22;36893;52.520;13.450;2023-09-18T11:05:29;27.90;65.60
49821;DHT22;36893;52.520;13.450;2023-09-18T11:15:31;28.00;65.60
49821;DHT22;36893;52.520;13.450;2023-09-18T11:25:39;28.00;65.40
49821;DHT22;36893;52.520;13.450;2023-09-18T11:35:51;28.00;65.20
49821;DHT22;36893;52.520;13.450;2023-09-18T11:45:54;28.00;65.20
49821;DHT22;36893;52.520;13.450;2023-09-18T11:55:56;28.10;65.10
49821;DHT22;36893;52.520;13.450;2023-09-18T12:06:00;28.10;65.10
49821;DHT22;36893;52.520;13.450;2023-09-18T12:16:05;28.10;65.00
49821;DHT22;36893;52.520;13.450;2023-09-18T12:26:06;28.10;65.00
49821;DHT22;36893;52.520;13.450;2023-09-18T12:36:10;28.10;65.90
49821;DHT22;36893;52.520;13.450;2023-09-18T12:46:11;28.10;65.00
49821;DHT22;36893;52.520;13.450;2023-09-18T12:56:13;28.10;65.00
49821;DHT22;36893;52.520;13.450;2023-09-18T13:06:18;28.20;65.00
49821;DHT22;36893;52.520;13.450;2023-09-18T13:16:22;28.20;65.00
49821;DHT22;36893;52.520;13.450;2023-09-18T13:26:23;28.20;65.00
49821;DHT22;36893;52.520;13.450;2023-09-18T13:36:23;28.20;64.90
49821;DHT22;36893;52.520;13.450;2023-09-18T13:46:24;28.20;64.90
49821;DHT22;36893;52.520;13.450;2023-09-18T13:56:24;28.20;64.90
49821;DHT22;36893;52.520;13.450;2023-09-18T14:06:28;28.20;64.80
49821;DHT22;36893;52.520;13.450;2023-09-18T14:16:28;28.20;64.80
49821;DHT22;36893;52.520;13.450;2023-09-18T14:26:29;28.20;64.80
49821;DHT22;36893;52.520;13.450;2023-09-18T14:36:30;28.20;64.90
49821;DHT22;36893;52.520;13.450;2023-09-18T14:46:32;28.20;65.00
49821;DHT22;36893;52.520;13.450;2023-09-18T14:56:33;28.30;65.20
49821;DHT22;36893;52.520;13.450;2023-09-18T15:06:54;28.30;65.20
49821;DHT22;36893;52.520;13.450;2023-09-18T15:16:55;28.30;65.30
49821;DHT22;36893;52.520;13.450;2023-09-18T15:26:56;28.30;65.20
49821;DHT22;36893;52.520;13.450;2023-09-18T15:36:57;28.30;65.10
49821;DHT22;36893;52.520;13.450;2023-09-18T15:46:57;28.40;65.20
49821;DHT22;36893;52.520;13.450;2023-09-18T15:56:58;28.40;64.90
49821;DHT22;36893;52.520;13.450;2023-09-18T16:06:59;28.50;64.90
49821;DHT22;36893;52.520;13.450;2023-09-18T16:16:59;28.50;64.70
49821;DHT22;36893;52.520;13.450;2023-09-18T16:27:04;28.50;64.60
49821;DHT22;36893;52.520;13.450;2023-09-18T16:37:08;28.60;64.60
49821;DHT22;36893;52.520;13.450;2023-09-18T16:47:08;28.60;64.80
49821;DHT22;36893;52.520;13.450;2023-09-18T16:57:10;28.60;64.80
49821;DHT22;36893;52.520;13.450;2023-09-18T17:07:13;28.60;64.90
49821;DHT22;36893;52.520;13.450;2023-09-18T17:17:14;28.70;65.40
49821;DHT22;36893;52.520;13.450;2023-09-18T17:27:15;28.70;66.80
49821;DHT22;36893;52.520;13.450;2023-09-18T17:37:16;28.70;66.30
49821;DHT22;36893;52.520;13.450;2023-09-18T17:47:17;28.60;66.50
49821;DHT22;36893;52.520;13.450;2023-09-18T17:57:18;28.60;66.90
49821;DHT22;36893;52.520;13.450;2023-09-18T18:07:18;28.60;67.20
49821;DHT22;36893;52.520;13.450;2023-09-18T18:17:19;28.60;67.70
49821;DHT22;36893;52.520;13.450;2023-09-18T18:27:19;28.50;68.00
49821;DHT22;36893;52.520;13.450;2023-09-18T18:37:20;28.40;68.30
49821;DHT22;36893;52.520;13.450;2023-09-18T18:47:21;28.40;68.40
49821;DHT22;36893;52.520;13.450;2023-09-18T18:57:22;28.40;68.60
49821;DHT22;36893;52.520;13.450;2023-09-18T19:07:23;28.40;68.70
49821;DHT22;36893;52.520;13.450;2023-09-18T19:17:23;28.40;68.60
49821;DHT22;36893;52.520;13.450;2023-09-18T19:27:24;28.30;68.60
49821;DHT22;36893;52.520;13.450;2023-09-18T19:37:25;28.30;68.60
49821;DHT22;36893;52.520;13.450;2023-09-18T19:47:26;28.30;68.80
49821;DHT22;36893;52.520;13.450;2023-09-18T19:57:27;28.20;68.90
49821;DHT22;36893;52.520;13.450;2023-09-18T20:07:27;28.20;69.10
49821;DHT22;36893;52.520;13.450;2023-09-18T20:17:29;28.30;69.10
49821;DHT22;36893;52.520;13.450;2023-09-18T20:27:29;28.40;69.10
49821;DHT22;36893;52.520;13.450;2023-09-18T20:37:31;28.40;69.10
49821;DHT22;36893;52.520;13.450;2023-09-18T20:47:32;28.40;69.10
49821;DHT22;36893;52.520;13.450;2023-09-18T20:57:33;28.40;69.10
49821;DHT22;36893;52.520;13.450;2023-09-18T21:07:34;28.40;69.00
49821;DHT22;36893;52.520;13.450;2023-09-18T21:17:34;28.40;69.00
49821;DHT22;36893;52.520;13.450;2023-09-18T21:27:35;28.40;68.90
49821;DHT22;36893;52.520;13.450;2023-09-18T21:37:36;28.40;68.90
49821;DHT22;36893;52.520;13.450;2023-09-18T21:47:38;28.40;69.00
49821;DHT22;36893;52.520;13.450;2023-09-18T21:57:39;28.40;69.00
49821;DHT22;36893;52.520;13.450;2023-09-18T22:07:40;28.40;68.90
49821;DHT22;36893;52.520;13.450;2023-09-18T22:17:41;28.40;68.90
49821;DHT22;36893;52.520;13.450;2023-09-18T22:27:42;28.40;68.80
49821;DHT22;36893;52.520;13.450;2023-09-18T22:37:43;28.40;68.80
49821;DHT22;36893;52.520;13.450;2023-09-18T22:58:43;28.40;68.80
49821;DHT22;36893;52.520;13.450;2023-09-18T23:08:46;28.30;68.70
49821;DHT22;36893;52.520;13.450;2023-09-18T23:18:48;28.30;68.50
49821;DHT22;36893;52.520;13.450;2023-09-18T23:28:51;28.30;68.40
49821;DHT22;36893;52.520;13.450;2023-09-18T23:38:51;28.20;68.40
49821;DHT22;36893;52.520;13.450;2023-09-18T23:48:52;28.20;68.30
49821;DHT22;36893;52.520;13.450;2023-09-18T23:58:54;28.20;68.40
